Allenstown, New Hampshire
Current Conditions -  °F | °C
As of 4:51 PM on Saturday 25 Oct 2014 (Local Time) from KCON Reporting Station
Clear Clear  
Wind Chill: 17°   Ceiling: Unl
Heat Index: 17°   Visibility: 10mi
Dew Point:   Wind: 8mph
Humidity: 43%   Direction: 230°SW
Pressure: 29.56"   Gusts: NA
Location:  43.1606°N, 71.4143°W
Report Text: KCON 252051Z AUTO 23007KT 10SM CLR 17/04 A2956 RMK AO2 SLP012 T01670039 56020
Loading
Personal Weather Stations






























Interactive Weather Map
Tropical Storm Tracking
New forecast layout! Learn more

10-Day Weather Forecast

Advertisements
Track Severe Weather on mobile